sensor_id;sensor_type;location;lat;lon;timestamp;temperature;humidity
5743;DHT22;2896;53.500;10.020;2023-09-30T00:01:40;13.10;99.90
5743;DHT22;2896;53.500;10.020;2023-09-30T00:04:07;13.10;99.90
5743;DHT22;2896;53.500;10.020;2023-09-30T00:06:34;13.10;99.90
5743;DHT22;2896;53.500;10.020;2023-09-30T00:09:02;13.10;1.00
5743;DHT22;2896;53.500;10.020;2023-09-30T00:11:30;13.10;1.00
5743;DHT22;2896;53.500;10.020;2023-09-30T00:13:57;12.90;1.00
5743;DHT22;2896;53.500;10.020;2023-09-30T00:16:24;13.00;1.00
5743;DHT22;2896;53.500;10.020;2023-09-30T00:18:50;12.90;1.00
5743;DHT22;2896;53.500;10.020;2023-09-30T00:21:18;12.90;1.00
5743;DHT22;2896;53.500;10.020;2023-09-30T00:23:45;12.90;1.00
5743;DHT22;2896;53.500;10.020;2023-09-30T00:26:13;12.90;1.00
5743;DHT22;2896;53.500;10.020;2023-09-30T00:28:40;12.90;1.00
5743;DHT22;2896;53.500;10.020;2023-09-30T00:31:07;13.70;1.00
5743;DHT22;2896;53.500;10.020;2023-09-30T00:33:35;12.80;1.00
5743;DHT22;2896;53.500;10.020;2023-09-30T00:36:06;12.80;1.00
5743;DHT22;2896;53.500;10.020;2023-09-30T00:38:33;12.70;1.00
5743;DHT22;2896;53.500;10.020;2023-09-30T00:40:59;12.70;1.00
5743;DHT22;2896;53.500;10.020;2023-09-30T00:43:28;12.70;1.00
5743;DHT22;2896;53.500;10.020;2023-09-30T00:46:02;12.70;1.00
5743;DHT22;2896;53.500;10.020;2023-09-30T00:48:32;12.70;1.00
5743;DHT22;2896;53.500;10.020;2023-09-30T00:51:00;12.70;1.00
5743;DHT22;2896;53.500;10.020;2023-09-30T00:53:27;12.80;1.00
5743;DHT22;2896;53.500;10.020;2023-09-30T00:55:55;12.80;1.00
5743;DHT22;2896;53.500;10.020;2023-09-30T00:58:22;12.90;1.00
5743;DHT22;2896;53.500;10.020;2023-09-30T01:00:53;12.90;1.00
5743;DHT22;2896;53.500;10.020;2023-09-30T01:03:19;13.00;1.00
5743;DHT22;2896;53.500;10.020;2023-09-30T01:05:46;12.90;1.00
5743;DHT22;2896;53.500;10.020;2023-09-30T01:08:13;12.90;1.00
5743;DHT22;2896;53.500;10.020;2023-09-30T01:10:40;12.90;1.00
5743;DHT22;2896;53.500;10.020;2023-09-30T01:13:06;12.90;1.00
5743;DHT22;2896;53.500;10.020;2023-09-30T01:15:33;12.90;1.00
5743;DHT22;2896;53.500;10.020;2023-09-30T01:18:01;12.80;99.90
5743;DHT22;2896;53.500;10.020;2023-09-30T01:20:28;12.80;99.90
5743;DHT22;2896;53.500;10.020;2023-09-30T01:22:57;12.90;99.90
5743;DHT22;2896;53.500;10.020;2023-09-30T01:25:24;12.80;99.90
5743;DHT22;2896;53.500;10.020;2023-09-30T01:27:51;12.80;99.90
5743;DHT22;2896;53.500;10.020;2023-09-30T01:30:18;13.40;99.90
5743;DHT22;2896;53.500;10.020;2023-09-30T01:32:45;11.70;99.90
5743;DHT22;2896;53.500;10.020;2023-09-30T01:35:12;12.90;99.90
5743;DHT22;2896;53.500;10.020;2023-09-30T01:37:38;12.80;99.90
5743;DHT22;2896;53.500;10.020;2023-09-30T01:40:07;12.70;99.90
5743;DHT22;2896;53.500;10.020;2023-09-30T01:42:36;12.70;99.90
5743;DHT22;2896;53.500;10.020;2023-09-30T01:45:04;12.60;99.90
5743;DHT22;2896;53.500;10.020;2023-09-30T01:47:31;12.50;99.90
5743;DHT22;2896;53.500;10.020;2023-09-30T01:49:58;12.50;99.90
5743;DHT22;2896;53.500;10.020;2023-09-30T01:52:24;12.50;99.90
5743;DHT22;2896;53.500;10.020;2023-09-30T01:54:51;12.50;99.90
5743;DHT22;2896;53.500;10.020;2023-09-30T01:57:20;12.00;99.90
5743;DHT22;2896;53.500;10.020;2023-09-30T01:59:47;12.40;99.90
5743;DHT22;2896;53.500;10.020;2023-09-30T02:02:14;12.40;1.00
5743;DHT22;2896;53.500;10.020;2023-09-30T02:04:42;12.50;1.00
5743;DHT22;2896;53.500;10.020;2023-09-30T02:07:10;12.40;1.00
5743;DHT22;2896;53.500;10.020;2023-09-30T02:09:36;12.40;1.00
5743;DHT22;2896;53.500;10.020;2023-09-30T02:12:03;12.40;1.00
5743;DHT22;2896;53.500;10.020;2023-09-30T02:14:31;12.40;1.00
5743;DHT22;2896;53.500;10.020;2023-09-30T02:16:58;12.30;1.00
5743;DHT22;2896;53.500;10.020;2023-09-30T02:19:25;12.30;1.00
5743;DHT22;2896;53.500;10.020;2023-09-30T02:21:52;12.40;1.00
5743;DHT22;2896;53.500;10.020;2023-09-30T02:24:19;12.40;1.00
5743;DHT22;2896;53.500;10.020;2023-09-30T02:26:48;12.40;1.00
5743;DHT22;2896;53.500;10.020;2023-09-30T02:29:15;12.50;1.00
5743;DHT22;2896;53.500;10.020;2023-09-30T02:31:42;12.40;1.00
5743;DHT22;2896;53.500;10.020;2023-09-30T02:34:08;12.50;1.00
5743;DHT22;2896;53.500;10.020;2023-09-30T02:36:35;12.40;1.00
5743;DHT22;2896;53.500;10.020;2023-09-30T02:39:04;12.40;1.00
5743;DHT22;2896;53.500;10.020;2023-09-30T02:41:34;12.40;1.00
5743;DHT22;2896;53.500;10.020;2023-09-30T02:44:01;12.40;1.00
5743;DHT22;2896;53.500;10.020;2023-09-30T02:46:27;12.40;1.00
5743;DHT22;2896;53.500;10.020;2023-09-30T02:48:55;12.40;1.00
5743;DHT22;2896;53.500;10.020;2023-09-30T02:51:22;12.30;1.00
5743;DHT22;2896;53.500;10.020;2023-09-30T02:53:50;12.40;1.00
5743;DHT22;2896;53.500;10.020;2023-09-30T02:56:17;12.30;1.00
5743;DHT22;2896;53.500;10.020;2023-09-30T02:58:45;12.30;1.00
5743;DHT22;2896;53.500;10.020;2023-09-30T03:01:14;12.40;3.00
5743;DHT22;2896;53.500;10.020;2023-09-30T03:03:42;12.30;1.00
5743;DHT22;2896;53.500;10.020;2023-09-30T03:06:11;12.20;3.40
5743;DHT22;2896;53.500;10.020;2023-09-30T03:08:38;12.30;99.90
5743;DHT22;2896;53.500;10.020;2023-09-30T03:11:06;12.30;99.90
5743;DHT22;2896;53.500;10.020;2023-09-30T03:13:33;12.20;99.90
5743;DHT22;2896;53.500;10.020;2023-09-30T03:16:00;12.20;99.90
5743;DHT22;2896;53.500;10.020;2023-09-30T03:18:27;12.30;99.90
5743;DHT22;2896;53.500;10.020;2023-09-30T03:20:59;12.30;99.90
5743;DHT22;2896;53.500;10.020;2023-09-30T03:23:28;12.30;99.90
5743;DHT22;2896;53.500;10.020;2023-09-30T03:25:56;12.20;99.90
5743;DHT22;2896;53.500;10.020;2023-09-30T03:28:23;12.30;99.90
5743;DHT22;2896;53.500;10.020;2023-09-30T03:30:49;12.20;99.90
5743;DHT22;2896;53.500;10.020;2023-09-30T03:33:16;12.20;99.90
5743;DHT22;2896;53.500;10.020;2023-09-30T03:35:43;12.20;99.90
5743;DHT22;2896;53.500;10.020;2023-09-30T03:38:10;12.10;99.90
5743;DHT22;2896;53.500;10.020;2023-09-30T03:40:40;12.10;1.00
5743;DHT22;2896;53.500;10.020;2023-09-30T03:43:13;12.10;1.00
5743;DHT22;2896;53.500;10.020;2023-09-30T03:45:39;11.40;1.00
5743;DHT22;2896;53.500;10.020;2023-09-30T03:48:06;12.10;1.00
5743;DHT22;2896;53.500;10.020;2023-09-30T03:50:33;12.20;1.00
5743;DHT22;2896;53.500;10.020;2023-09-30T03:53:01;12.20;1.00
5743;DHT22;2896;53.500;10.020;2023-09-30T03:55:28;12.20;1.00
5743;DHT22;2896;53.500;10.020;2023-09-30T03:57:57;12.30;33.10
5743;DHT22;2896;53.500;10.020;2023-09-30T04:00:23;12.30;8.50
5743;DHT22;2896;53.500;10.020;2023-09-30T04:02:50;12.20;1.00
5743;DHT22;2896;53.500;10.020;2023-09-30T04:05:23;12.30;36.20
5743;DHT22;2896;53.500;10.020;2023-09-30T04:07:54;12.30;1.00
5743;DHT22;2896;53.500;10.020;2023-09-30T04:10:20;12.20;1.00
5743;DHT22;2896;53.500;10.020;2023-09-30T04:12:48;12.20;1.00
5743;DHT22;2896;53.500;10.020;2023-09-30T04:15:16;12.20;1.00
5743;DHT22;2896;53.500;10.020;2023-09-30T04:17:43;12.20;1.00
5743;DHT22;2896;53.500;10.020;2023-09-30T04:20:10;12.20;1.00
5743;DHT22;2896;53.500;10.020;2023-09-30T04:22:42;12.20;1.00
5743;DHT22;2896;53.500;10.020;2023-09-30T04:25:11;12.20;1.00
5743;DHT22;2896;53.500;10.020;2023-09-30T04:27:38;12.20;1.00
5743;DHT22;2896;53.500;10.020;2023-09-30T04:30:06;12.20;1.00
5743;DHT22;2896;53.500;10.020;2023-09-30T04:32:35;12.20;1.00
5743;DHT22;2896;53.500;10.020;2023-09-30T04:35:03;12.30;11.00
5743;DHT22;2896;53.500;10.020;2023-09-30T04:37:29;12.30;1.00
5743;DHT22;2896;53.500;10.020;2023-09-30T04:39:56;12.30;1.00
5743;DHT22;2896;53.500;10.020;2023-09-30T04:42:23;12.30;1.00
5743;DHT22;2896;53.500;10.020;2023-09-30T04:44:50;12.30;1.00
5743;DHT22;2896;53.500;10.020;2023-09-30T04:47:17;12.30;1.00
5743;DHT22;2896;53.500;10.020;2023-09-30T04:49:45;12.30;1.00
5743;DHT22;2896;53.500;10.020;2023-09-30T04:52:12;12.20;1.00
5743;DHT22;2896;53.500;10.020;2023-09-30T04:54:39;12.30;1.00
5743;DHT22;2896;53.500;10.020;2023-09-30T04:57:05;12.20;1.00
5743;DHT22;2896;53.500;10.020;2023-09-30T04:59:32;12.20;1.00
5743;DHT22;2896;53.500;10.020;2023-09-30T05:01:59;12.30;1.00
5743;DHT22;2896;53.500;10.020;2023-09-30T05:04:26;12.20;1.00
5743;DHT22;2896;53.500;10.020;2023-09-30T05:06:56;12.30;1.00
5743;DHT22;2896;53.500;10.020;2023-09-30T05:09:23;12.20;1.00
5743;DHT22;2896;53.500;10.020;2023-09-30T05:11:51;12.20;1.00
5743;DHT22;2896;53.500;10.020;2023-09-30T05:14:19;12.30;1.00
5743;DHT22;2896;53.500;10.020;2023-09-30T05:16:46;12.20;1.00
5743;DHT22;2896;53.500;10.020;2023-09-30T05:19:13;12.40;1.00
5743;DHT22;2896;53.500;10.020;2023-09-30T05:21:40;12.30;1.00
5743;DHT22;2896;53.500;10.020;2023-09-30T05:24:08;12.30;1.00
5743;DHT22;2896;53.500;10.020;2023-09-30T05:26:36;12.40;1.00
5743;DHT22;2896;53.500;10.020;2023-09-30T05:29:03;12.40;99.90
5743;DHT22;2896;53.500;10.020;2023-09-30T05:31:30;12.30;99.90
5743;DHT22;2896;53.500;10.020;2023-09-30T05:33:57;12.30;99.90
5743;DHT22;2896;53.500;10.020;2023-09-30T05:36:24;12.40;99.90
5743;DHT22;2896;53.500;10.020;2023-09-30T05:38:51;12.40;99.90
5743;DHT22;2896;53.500;10.020;2023-09-30T05:41:18;12.40;99.90
5743;DHT22;2896;53.500;10.020;2023-09-30T05:43:46;12.40;99.90
5743;DHT22;2896;53.500;10.020;2023-09-30T05:46:13;12.40;99.90
5743;DHT22;2896;53.500;10.020;2023-09-30T05:48:40;12.40;99.90
5743;DHT22;2896;53.500;10.020;2023-09-30T05:51:07;12.40;99.90
5743;DHT22;2896;53.500;10.020;2023-09-30T05:53:33;12.40;99.90
5743;DHT22;2896;53.500;10.020;2023-09-30T05:56:01;12.50;99.90
5743;DHT22;2896;53.500;10.020;2023-09-30T05:58:30;12.50;99.90
5743;DHT22;2896;53.500;10.020;2023-09-30T06:00:57;12.50;99.90
5743;DHT22;2896;53.500;10.020;2023-09-30T06:03:25;12.50;99.90
5743;DHT22;2896;53.500;10.020;2023-09-30T06:05:54;12.50;99.90
5743;DHT22;2896;53.500;10.020;2023-09-30T06:08:21;12.50;99.90
5743;DHT22;2896;53.500;10.020;2023-09-30T06:10:48;12.50;99.90
5743;DHT22;2896;53.500;10.020;2023-09-30T06:13:15;12.50;99.90
5743;DHT22;2896;53.500;10.020;2023-09-30T06:15:43;12.50;99.90
5743;DHT22;2896;53.500;10.020;2023-09-30T06:18:12;12.60;99.90
5743;DHT22;2896;53.500;10.020;2023-09-30T06:20:40;12.70;99.90
5743;DHT22;2896;53.500;10.020;2023-09-30T06:23:07;12.70;1.00
5743;DHT22;2896;53.500;10.020;2023-09-30T06:25:35;12.70;1.00
5743;DHT22;2896;53.500;10.020;2023-09-30T06:28:02;12.70;1.00
5743;DHT22;2896;53.500;10.020;2023-09-30T06:30:29;12.70;1.00
5743;DHT22;2896;53.500;10.020;2023-09-30T06:33:00;12.70;1.00
5743;DHT22;2896;53.500;10.020;2023-09-30T06:35:30;12.70;1.00
5743;DHT22;2896;53.500;10.020;2023-09-30T06:38:02;12.70;1.00
5743;DHT22;2896;53.500;10.020;2023-09-30T06:40:30;12.80;1.00
5743;DHT22;2896;53.500;10.020;2023-09-30T06:42:57;12.70;1.00
5743;DHT22;2896;53.500;10.020;2023-09-30T06:45:25;12.90;1.00
5743;DHT22;2896;53.500;10.020;2023-09-30T06:47:51;13.00;99.90
5743;DHT22;2896;53.500;10.020;2023-09-30T06:50:21;13.00;99.90
5743;DHT22;2896;53.500;10.020;2023-09-30T06:52:49;13.20;99.90
5743;DHT22;2896;53.500;10.020;2023-09-30T06:55:15;13.30;99.90
5743;DHT22;2896;53.500;10.020;2023-09-30T06:57:42;13.40;99.90
5743;DHT22;2896;53.500;10.020;2023-09-30T07:00:10;13.50;20.20
5743;DHT22;2896;53.500;10.020;2023-09-30T07:02:37;13.60;1.00
5743;DHT22;2896;53.500;10.020;2023-09-30T07:05:06;13.70;1.00
5743;DHT22;2896;53.500;10.020;2023-09-30T07:07:35;13.70;1.00
5743;DHT22;2896;53.500;10.020;2023-09-30T07:10:01;13.80;1.00
5743;DHT22;2896;53.500;10.020;2023-09-30T07:12:29;13.90;1.00
5743;DHT22;2896;53.500;10.020;2023-09-30T07:14:57;14.00;1.00
5743;DHT22;2896;53.500;10.020;2023-09-30T07:17:24;14.10;99.90
5743;DHT22;2896;53.500;10.020;2023-09-30T07:19:50;14.20;99.90
5743;DHT22;2896;53.500;10.020;2023-09-30T07:22:17;14.30;99.90
5743;DHT22;2896;53.500;10.020;2023-09-30T07:24:45;14.40;99.90
5743;DHT22;2896;53.500;10.020;2023-09-30T07:27:11;14.50;99.90
5743;DHT22;2896;53.500;10.020;2023-09-30T07:29:38;14.60;90.30
5743;DHT22;2896;53.500;10.020;2023-09-30T07:32:06;14.60;1.00
5743;DHT22;2896;53.500;10.020;2023-09-30T07:34:33;14.70;1.00
5743;DHT22;2896;53.500;10.020;2023-09-30T07:36:59;14.80;1.00
5743;DHT22;2896;53.500;10.020;2023-09-30T07:39:26;14.90;1.00
5743;DHT22;2896;53.500;10.020;2023-09-30T07:41:54;14.90;1.00
5743;DHT22;2896;53.500;10.020;2023-09-30T07:44:20;15.00;1.00
5743;DHT22;2896;53.500;10.020;2023-09-30T07:46:47;15.10;1.00
5743;DHT22;2896;53.500;10.020;2023-09-30T07:49:14;15.00;1.00
5743;DHT22;2896;53.500;10.020;2023-09-30T07:51:41;15.20;1.00
5743;DHT22;2896;53.500;10.020;2023-09-30T07:54:07;15.30;1.00
5743;DHT22;2896;53.500;10.020;2023-09-30T07:56:34;15.30;1.00
5743;DHT22;2896;53.500;10.020;2023-09-30T07:59:02;15.30;1.00
5743;DHT22;2896;53.500;10.020;2023-09-30T08:01:29;15.50;1.00
5743;DHT22;2896;53.500;10.020;2023-09-30T08:03:56;15.60;99.90
5743;DHT22;2896;53.500;10.020;2023-09-30T08:06:23;17.00;99.90
5743;DHT22;2896;53.500;10.020;2023-09-30T08:08:49;15.60;99.90
5743;DHT22;2896;53.500;10.020;2023-09-30T08:11:17;15.70;99.90
5743;DHT22;2896;53.500;10.020;2023-09-30T08:13:46;15.80;99.90
5743;DHT22;2896;53.500;10.020;2023-09-30T08:16:14;15.80;99.90
5743;DHT22;2896;53.500;10.020;2023-09-30T08:18:41;15.80;99.90
5743;DHT22;2896;53.500;10.020;2023-09-30T08:21:09;15.90;99.90
5743;DHT22;2896;53.500;10.020;2023-09-30T08:23:37;15.90;99.90
5743;DHT22;2896;53.500;10.020;2023-09-30T08:26:04;16.00;99.90
5743;DHT22;2896;53.500;10.020;2023-09-30T08:28:31;16.10;99.90
5743;DHT22;2896;53.500;10.020;2023-09-30T08:31:02;16.10;99.90
5743;DHT22;2896;53.500;10.020;2023-09-30T08:33:30;16.20;99.90
5743;DHT22;2896;53.500;10.020;2023-09-30T08:36:01;16.20;99.90
5743;DHT22;2896;53.500;10.020;2023-09-30T08:38:32;16.20;99.90
5743;DHT22;2896;53.500;10.020;2023-09-30T08:40:59;16.30;99.90
5743;DHT22;2896;53.500;10.020;2023-09-30T08:43:28;14.80;99.90
5743;DHT22;2896;53.500;10.020;2023-09-30T08:45:58;16.50;99.90
5743;DHT22;2896;53.500;10.020;2023-09-30T08:48:26;16.40;99.90
5743;DHT22;2896;53.500;10.020;2023-09-30T08:50:55;16.40;99.90
5743;DHT22;2896;53.500;10.020;2023-09-30T08:53:22;16.40;99.90
5743;DHT22;2896;53.500;10.020;2023-09-30T08:55:53;16.40;99.90
5743;DHT22;2896;53.500;10.020;2023-09-30T08:58:23;16.50;99.90
5743;DHT22;2896;53.500;10.020;2023-09-30T09:00:50;16.60;99.90
5743;DHT22;2896;53.500;10.020;2023-09-30T09:03:18;16.80;99.90
5743;DHT22;2896;53.500;10.020;2023-09-30T09:05:45;16.80;91.70
5743;DHT22;2896;53.500;10.020;2023-09-30T09:08:13;16.90;76.30
5743;DHT22;2896;53.500;10.020;2023-09-30T09:10:53;16.90;47.60
5743;DHT22;2896;53.500;10.020;2023-09-30T09:13:22;17.10;26.50
5743;DHT22;2896;53.500;10.020;2023-09-30T09:15:49;17.20;16.90
5743;DHT22;2896;53.500;10.020;2023-09-30T09:18:31;17.30;10.60
5743;DHT22;2896;53.500;10.020;2023-09-30T09:21:08;17.40;1.00
5743;DHT22;2896;53.500;10.020;2023-09-30T09:23:40;17.40;1.00
5743;DHT22;2896;53.500;10.020;2023-09-30T09:26:08;17.50;1.00
5743;DHT22;2896;53.500;10.020;2023-09-30T09:28:35;17.50;1.00
5743;DHT22;2896;53.500;10.020;2023-09-30T09:31:19;17.40;1.00
5743;DHT22;2896;53.500;10.020;2023-09-30T09:33:47;17.50;1.00
5743;DHT22;2896;53.500;10.020;2023-09-30T09:36:14;17.70;1.00
5743;DHT22;2896;53.500;10.020;2023-09-30T09:38:46;17.60;1.00
5743;DHT22;2896;53.500;10.020;2023-09-30T09:41:13;17.80;1.00
5743;DHT22;2896;53.500;10.020;2023-09-30T09:43:41;17.90;1.00
5743;DHT22;2896;53.500;10.020;2023-09-30T09:46:08;17.90;1.00
5743;DHT22;2896;53.500;10.020;2023-09-30T09:48:35;18.00;1.00
5743;DHT22;2896;53.500;10.020;2023-09-30T09:51:04;18.00;1.00
5743;DHT22;2896;53.500;10.020;2023-09-30T09:53:34;18.10;1.00
5743;DHT22;2896;53.500;10.020;2023-09-30T09:56:03;18.30;1.00
5743;DHT22;2896;53.500;10.020;2023-09-30T09:58:32;18.50;1.00
5743;DHT22;2896;53.500;10.020;2023-09-30T10:01:00;18.40;1.00
5743;DHT22;2896;53.500;10.020;2023-09-30T10:03:27;18.40;1.00
5743;DHT22;2896;53.500;10.020;2023-09-30T10:05:54;18.50;1.00
5743;DHT22;2896;53.500;10.020;2023-09-30T10:08:22;18.40;1.00
5743;DHT22;2896;53.500;10.020;2023-09-30T10:10:55;18.60;1.00
5743;DHT22;2896;53.500;10.020;2023-09-30T10:13:56;18.80;1.00
5743;DHT22;2896;53.500;10.020;2023-09-30T10:16:48;18.90;1.00
5743;DHT22;2896;53.500;10.020;2023-09-30T10:19:19;18.90;1.00
5743;DHT22;2896;53.500;10.020;2023-09-30T10:22:21;19.00;1.00
5743;DHT22;2896;53.500;10.020;2023-09-30T10:24:49;19.20;1.00
5743;DHT22;2896;53.500;10.020;2023-09-30T10:27:34;19.20;1.00
5743;DHT22;2896;53.500;10.020;2023-09-30T10:30:09;19.40;1.00
5743;DHT22;2896;53.500;10.020;2023-09-30T10:33:10;19.50;1.00
5743;DHT22;2896;53.500;10.020;2023-09-30T10:35:47;19.70;1.00
5743;DHT22;2896;53.500;10.020;2023-09-30T10:38:37;20.00;99.90
5743;DHT22;2896;53.500;10.020;2023-09-30T10:41:06;20.30;99.90
5743;DHT22;2896;53.500;10.020;2023-09-30T10:43:34;20.30;99.90
5743;DHT22;2896;53.500;10.020;2023-09-30T10:46:04;20.10;99.90
5743;DHT22;2896;53.500;10.020;2023-09-30T10:48:34;20.20;99.90
5743;DHT22;2896;53.500;10.020;2023-09-30T10:51:01;20.10;99.90
5743;DHT22;2896;53.500;10.020;2023-09-30T10:53:41;20.30;99.90
5743;DHT22;2896;53.500;10.020;2023-09-30T10:56:08;20.50;99.90
5743;DHT22;2896;53.500;10.020;2023-09-30T10:58:42;21.40;99.90
5743;DHT22;2896;53.500;10.020;2023-09-30T11:01:10;20.60;99.90
5743;DHT22;2896;53.500;10.020;2023-09-30T11:03:39;23.20;99.90
5743;DHT22;2896;53.500;10.020;2023-09-30T11:06:06;20.90;99.90
5743;DHT22;2896;53.500;10.020;2023-09-30T11:08:33;21.00;99.90
5743;DHT22;2896;53.500;10.020;2023-09-30T11:11:00;21.20;99.90
5743;DHT22;2896;53.500;10.020;2023-09-30T11:13:39;22.60;99.90
5743;DHT22;2896;53.500;10.020;2023-09-30T11:16:07;20.90;99.90
5743;DHT22;2896;53.500;10.020;2023-09-30T11:18:37;22.70;99.90
5743;DHT22;2896;53.500;10.020;2023-09-30T11:21:08;21.90;99.90
5743;DHT22;2896;53.500;10.020;2023-09-30T11:23:36;22.60;99.90
5743;DHT22;2896;53.500;10.020;2023-09-30T11:26:04;21.00;99.90
5743;DHT22;2896;53.500;10.020;2023-09-30T11:28:39;23.00;99.90
5743;DHT22;2896;53.500;10.020;2023-09-30T11:31:11;20.80;99.90
5743;DHT22;2896;53.500;10.020;2023-09-30T11:34:02;20.90;99.90
5743;DHT22;2896;53.500;10.020;2023-09-30T11:36:31;20.90;99.90
5743;DHT22;2896;53.500;10.020;2023-09-30T11:39:01;20.90;99.90
5743;DHT22;2896;53.500;10.020;2023-09-30T11:41:37;21.80;99.90
5743;DHT22;2896;53.500;10.020;2023-09-30T11:44:06;21.10;99.90
5743;DHT22;2896;53.500;10.020;2023-09-30T11:46:47;21.20;99.90
5743;DHT22;2896;53.500;10.020;2023-09-30T11:49:26;22.50;99.90
5743;DHT22;2896;53.500;10.020;2023-09-30T11:51:53;22.60;99.90
5743;DHT22;2896;53.500;10.020;2023-09-30T11:54:20;22.30;99.90
5743;DHT22;2896;53.500;10.020;2023-09-30T11:56:48;21.60;99.90
5743;DHT22;2896;53.500;10.020;2023-09-30T11:59:16;21.80;99.90
5743;DHT22;2896;53.500;10.020;2023-09-30T12:01:45;21.80;99.90
5743;DHT22;2896;53.500;10.020;2023-09-30T12:04:14;22.10;99.90
5743;DHT22;2896;53.500;10.020;2023-09-30T12:06:44;21.50;99.90
5743;DHT22;2896;53.500;10.020;2023-09-30T12:09:10;21.40;99.90
5743;DHT22;2896;53.500;10.020;2023-09-30T12:11:40;21.30;99.90
5743;DHT22;2896;53.500;10.020;2023-09-30T12:14:10;21.40;99.90
5743;DHT22;2896;53.500;10.020;2023-09-30T12:16:37;21.70;99.90
5743;DHT22;2896;53.500;10.020;2023-09-30T12:19:03;21.30;99.90
5743;DHT22;2896;53.500;10.020;2023-09-30T12:21:31;22.60;99.90
5743;DHT22;2896;53.500;10.020;2023-09-30T12:24:00;22.60;99.90
5743;DHT22;2896;53.500;10.020;2023-09-30T12:26:29;23.10;99.90
5743;DHT22;2896;53.500;10.020;2023-09-30T12:28:56;22.70;99.90
5743;DHT22;2896;53.500;10.020;2023-09-30T12:31:22;22.90;99.90
5743;DHT22;2896;53.500;10.020;2023-09-30T12:33:49;23.00;99.90
5743;DHT22;2896;53.500;10.020;2023-09-30T12:36:17;23.00;99.90
5743;DHT22;2896;53.500;10.020;2023-09-30T12:38:44;23.00;99.90
5743;DHT22;2896;53.500;10.020;2023-09-30T12:41:13;22.50;99.90
5743;DHT22;2896;53.500;10.020;2023-09-30T12:43:40;22.40;99.90
5743;DHT22;2896;53.500;10.020;2023-09-30T12:46:07;22.30;99.90
5743;DHT22;2896;53.500;10.020;2023-09-30T12:48:34;22.10;99.90
5743;DHT22;2896;53.500;10.020;2023-09-30T12:51:01;22.00;99.90
5743;DHT22;2896;53.500;10.020;2023-09-30T12:53:29;21.90;99.90
5743;DHT22;2896;53.500;10.020;2023-09-30T12:55:56;21.60;99.90
5743;DHT22;2896;53.500;10.020;2023-09-30T12:58:24;21.40;99.90
5743;DHT22;2896;53.500;10.020;2023-09-30T13:00:53;21.30;99.90
5743;DHT22;2896;53.500;10.020;2023-09-30T13:03:19;21.20;99.90
5743;DHT22;2896;53.500;10.020;2023-09-30T13:05:46;21.20;99.90
5743;DHT22;2896;53.500;10.020;2023-09-30T13:08:13;21.30;99.90
5743;DHT22;2896;53.500;10.020;2023-09-30T13:10:39;21.30;99.90
5743;DHT22;2896;53.500;10.020;2023-09-30T13:13:06;21.80;99.90
5743;DHT22;2896;53.500;10.020;2023-09-30T13:15:34;21.40;99.90
5743;DHT22;2896;53.500;10.020;2023-09-30T13:18:03;21.40;99.90
5743;DHT22;2896;53.500;10.020;2023-09-30T13:20:31;21.40;99.90
5743;DHT22;2896;53.500;10.020;2023-09-30T13:22:57;21.30;99.90
5743;DHT22;2896;53.500;10.020;2023-09-30T13:25:24;21.50;99.90
5743;DHT22;2896;53.500;10.020;2023-09-30T13:27:52;21.80;99.90
5743;DHT22;2896;53.500;10.020;2023-09-30T13:30:18;21.70;99.90
5743;DHT22;2896;53.500;10.020;2023-09-30T13:32:47;21.70;99.90
5743;DHT22;2896;53.500;10.020;2023-09-30T13:35:14;21.70;99.90
5743;DHT22;2896;53.500;10.020;2023-09-30T13:37:41;21.70;99.90
5743;DHT22;2896;53.500;10.020;2023-09-30T13:40:08;21.90;99.90
5743;DHT22;2896;53.500;10.020;2023-09-30T13:42:37;21.90;99.90
5743;DHT22;2896;53.500;10.020;2023-09-30T13:45:05;21.90;99.90
5743;DHT22;2896;53.500;10.020;2023-09-30T13:47:33;22.00;99.90
5743;DHT22;2896;53.500;10.020;2023-09-30T13:50:01;22.00;99.90
5743;DHT22;2896;53.500;10.020;2023-09-30T13:52:29;22.10;99.90
5743;DHT22;2896;53.500;10.020;2023-09-30T13:54:56;22.10;99.90
5743;DHT22;2896;53.500;10.020;2023-09-30T13:57:22;22.00;99.90
5743;DHT22;2896;53.500;10.020;2023-09-30T13:59:49;21.90;99.90
5743;DHT22;2896;53.500;10.020;2023-09-30T14:02:16;21.70;99.90
5743;DHT22;2896;53.500;10.020;2023-09-30T14:04:43;21.50;99.90
5743;DHT22;2896;53.500;10.020;2023-09-30T14:07:11;21.40;99.90
5743;DHT22;2896;53.500;10.020;2023-09-30T14:09:39;21.50;99.90
5743;DHT22;2896;53.500;10.020;2023-09-30T14:12:06;21.40;99.90
5743;DHT22;2896;53.500;10.020;2023-09-30T14:14:33;21.30;99.90
5743;DHT22;2896;53.500;10.020;2023-09-30T14:17:01;21.10;99.90
5743;DHT22;2896;53.500;10.020;2023-09-30T14:19:33;21.00;99.90
5743;DHT22;2896;53.500;10.020;2023-09-30T14:22:00;20.90;99.90
5743;DHT22;2896;53.500;10.020;2023-09-30T14:24:28;20.80;99.90
5743;DHT22;2896;53.500;10.020;2023-09-30T14:26:54;20.60;99.90
5743;DHT22;2896;53.500;10.020;2023-09-30T14:29:21;20.60;99.90
5743;DHT22;2896;53.500;10.020;2023-09-30T14:31:48;20.50;99.90
5743;DHT22;2896;53.500;10.020;2023-09-30T14:34:15;20.40;99.90
5743;DHT22;2896;53.500;10.020;2023-09-30T14:36:41;20.30;99.90
5743;DHT22;2896;53.500;10.020;2023-09-30T14:39:08;20.20;99.90
5743;DHT22;2896;53.500;10.020;2023-09-30T14:41:37;20.10;99.90
5743;DHT22;2896;53.500;10.020;2023-09-30T14:44:04;20.10;99.90
5743;DHT22;2896;53.500;10.020;2023-09-30T14:46:33;20.00;99.90
5743;DHT22;2896;53.500;10.020;2023-09-30T14:49:00;19.90;99.90
5743;DHT22;2896;53.500;10.020;2023-09-30T14:51:26;19.90;99.90
5743;DHT22;2896;53.500;10.020;2023-09-30T14:53:53;19.90;99.90
5743;DHT22;2896;53.500;10.020;2023-09-30T14:56:19;19.90;99.90
5743;DHT22;2896;53.500;10.020;2023-09-30T14:58:48;19.90;99.90
5743;DHT22;2896;53.500;10.020;2023-09-30T15:01:14;19.90;99.90
5743;DHT22;2896;53.500;10.020;2023-09-30T15:03:41;19.90;99.90
5743;DHT22;2896;53.500;10.020;2023-09-30T15:06:09;19.80;99.90
5743;DHT22;2896;53.500;10.020;2023-09-30T15:08:37;19.70;99.90
5743;DHT22;2896;53.500;10.020;2023-09-30T15:11:04;19.70;99.90
5743;DHT22;2896;53.500;10.020;2023-09-30T15:13:31;19.70;99.90
5743;DHT22;2896;53.500;10.020;2023-09-30T15:15:59;19.60;99.90
5743;DHT22;2896;53.500;10.020;2023-09-30T15:18:26;19.60;99.90
5743;DHT22;2896;53.500;10.020;2023-09-30T15:20:52;19.60;99.90
5743;DHT22;2896;53.500;10.020;2023-09-30T15:23:19;19.70;99.90
5743;DHT22;2896;53.500;10.020;2023-09-30T15:25:46;19.60;99.90
5743;DHT22;2896;53.500;10.020;2023-09-30T15:28:13;19.60;99.90
5743;DHT22;2896;53.500;10.020;2023-09-30T15:30:40;19.50;99.90
5743;DHT22;2896;53.500;10.020;2023-09-30T15:33:08;19.40;99.90
5743;DHT22;2896;53.500;10.020;2023-09-30T15:35:35;19.50;99.90
5743;DHT22;2896;53.500;10.020;2023-09-30T15:38:02;19.50;99.90
5743;DHT22;2896;53.500;10.020;2023-09-30T15:40:30;19.50;99.90
5743;DHT22;2896;53.500;10.020;2023-09-30T15:42:57;19.50;99.90
5743;DHT22;2896;53.500;10.020;2023-09-30T15:45:24;19.50;99.90
5743;DHT22;2896;53.500;10.020;2023-09-30T15:47:51;19.40;99.90
5743;DHT22;2896;53.500;10.020;2023-09-30T15:50:19;19.40;99.90
5743;DHT22;2896;53.500;10.020;2023-09-30T15:52:46;19.30;99.90
5743;DHT22;2896;53.500;10.020;2023-09-30T15:55:13;19.20;99.90
5743;DHT22;2896;53.500;10.020;2023-09-30T15:57:40;19.00;99.90
5743;DHT22;2896;53.500;10.020;2023-09-30T16:00:09;19.00;99.90